sensor_id;sensor_type;location;lat;lon;timestamp;temperature;humidity
13320;DHT22;59599;47.608;12.190;2023-03-25T01:29:16;8.90;99.90
13320;DHT22;59599;47.608;12.190;2023-03-25T01:46:26;8.30;99.90
13320;DHT22;59599;47.608;12.190;2023-03-25T01:51:26;8.40;99.90
13320;DHT22;59599;47.608;12.190;2023-03-25T01:56:23;8.30;99.90
13320;DHT22;59599;47.608;12.190;2023-03-25T01:58:50;8.30;99.90
13320;DHT22;59599;47.608;12.190;2023-03-25T02:01:18;8.20;99.90
13320;DHT22;59599;47.608;12.190;2023-03-25T02:03:48;8.10;99.90
13320;DHT22;59599;47.608;12.190;2023-03-25T02:06:38;8.10;99.90
13320;DHT22;59599;47.608;12.190;2023-03-25T02:09:05;8.10;99.90
13320;DHT22;59599;47.608;12.190;2023-03-25T02:14:03;8.20;99.90
13320;DHT22;59599;47.608;12.190;2023-03-25T02:16:53;8.20;99.90
13320;DHT22;59599;47.608;12.190;2023-03-25T02:27:56;8.30;99.90
13320;DHT22;59599;47.608;12.190;2023-03-25T02:34:12;8.30;99.90
13320;DHT22;59599;47.608;12.190;2023-03-25T02:47:18;8.20;99.90
13320;DHT22;59599;47.608;12.190;2023-03-25T02:49:47;8.20;99.90
13320;DHT22;59599;47.608;12.190;2023-03-25T02:52:19;8.20;99.90
13320;DHT22;59599;47.608;12.190;2023-03-25T02:54:47;8.20;99.90
13320;DHT22;59599;47.608;12.190;2023-03-25T02:57:18;8.40;99.90
13320;DHT22;59599;47.608;12.190;2023-03-25T02:59:46;8.40;99.90
13320;DHT22;59599;47.608;12.190;2023-03-25T03:02:14;8.20;99.90
13320;DHT22;59599;47.608;12.190;2023-03-25T03:04:51;8.10;99.90
13320;DHT22;59599;47.608;12.190;2023-03-25T03:07:32;8.10;99.90
13320;DHT22;59599;47.608;12.190;2023-03-25T03:10:08;8.10;99.90
13320;DHT22;59599;47.608;12.190;2023-03-25T03:13:15;8.10;99.90
13320;DHT22;59599;47.608;12.190;2023-03-25T03:24:30;8.20;99.90
13320;DHT22;59599;47.608;12.190;2023-03-25T03:27:06;8.30;99.90
13320;DHT22;59599;47.608;12.190;2023-03-25T03:29:41;8.30;99.90
13320;DHT22;59599;47.608;12.190;2023-03-25T03:34:45;8.30;99.90
13320;DHT22;59599;47.608;12.190;2023-03-25T03:37:23;8.20;99.90
13320;DHT22;59599;47.608;12.190;2023-03-25T03:39:51;8.20;99.90
13320;DHT22;59599;47.608;12.190;2023-03-25T03:42:28;8.10;99.90
13320;DHT22;59599;47.608;12.190;2023-03-25T03:45:28;8.00;99.90
13320;DHT22;59599;47.608;12.190;2023-03-25T03:47:57;7.80;99.90
13320;DHT22;59599;47.608;12.190;2023-03-25T03:50:32;8.00;99.90
13320;DHT22;59599;47.608;12.190;2023-03-25T03:53:11;8.10;99.90
13320;DHT22;59599;47.608;12.190;2023-03-25T03:55:50;8.10;99.90
13320;DHT22;59599;47.608;12.190;2023-03-25T03:58:27;8.20;99.90
13320;DHT22;59599;47.608;12.190;2023-03-25T04:01:16;8.20;99.90
13320;DHT22;59599;47.608;12.190;2023-03-25T04:04:20;8.10;99.90
13320;DHT22;59599;47.608;12.190;2023-03-25T04:09:38;8.10;99.90
13320;DHT22;59599;47.608;12.190;2023-03-25T04:12:14;8.20;99.90
13320;DHT22;59599;47.608;12.190;2023-03-25T04:14:42;8.10;99.90
13320;DHT22;59599;47.608;12.190;2023-03-25T04:17:08;8.20;99.90
13320;DHT22;59599;47.608;12.190;2023-03-25T04:22:03;8.40;99.90
13320;DHT22;59599;47.608;12.190;2023-03-25T04:24:29;8.30;99.90
13320;DHT22;59599;47.608;12.190;2023-03-25T04:26:59;8.20;99.90
13320;DHT22;59599;47.608;12.190;2023-03-25T04:31:54;8.10;99.90
13320;DHT22;59599;47.608;12.190;2023-03-25T04:39:15;8.30;99.90
13320;DHT22;59599;47.608;12.190;2023-03-25T04:41:48;8.20;99.90
13320;DHT22;59599;47.608;12.190;2023-03-25T04:49:08;8.10;99.90
13320;DHT22;59599;47.608;12.190;2023-03-25T04:54:10;8.30;99.90
13320;DHT22;59599;47.608;12.190;2023-03-25T04:56:35;8.30;99.90
13320;DHT22;59599;47.608;12.190;2023-03-25T05:04:01;8.50;99.90
13320;DHT22;59599;47.608;12.190;2023-03-25T05:06:32;8.50;99.90
13320;DHT22;59599;47.608;12.190;2023-03-25T05:08:59;8.40;99.90
13320;DHT22;59599;47.608;12.190;2023-03-25T05:11:26;8.40;99.90
13320;DHT22;59599;47.608;12.190;2023-03-25T05:23:37;8.20;99.90
13320;DHT22;59599;47.608;12.190;2023-03-25T05:40:44;8.30;99.90
13320;DHT22;59599;47.608;12.190;2023-03-25T05:43:11;8.20;99.90
13320;DHT22;59599;47.608;12.190;2023-03-25T05:45:37;7.90;99.90
13320;DHT22;59599;47.608;12.190;2023-03-25T05:48:02;7.90;99.90
13320;DHT22;59599;47.608;12.190;2023-03-25T05:50:29;7.80;99.90
13320;DHT22;59599;47.608;12.190;2023-03-25T05:55:22;7.50;99.90
13320;DHT22;59599;47.608;12.190;2023-03-25T06:00:15;7.40;99.90
13320;DHT22;59599;47.608;12.190;2023-03-25T06:02:43;7.50;99.90
13320;DHT22;59599;47.608;12.190;2023-03-25T06:05:09;7.50;99.90
13320;DHT22;59599;47.608;12.190;2023-03-25T06:10:07;7.60;99.90
13320;DHT22;59599;47.608;12.190;2023-03-25T06:15:07;7.80;99.90
13320;DHT22;59599;47.608;12.190;2023-03-25T06:17:34;7.80;99.90
13320;DHT22;59599;47.608;12.190;2023-03-25T06:20:04;7.80;99.90
13320;DHT22;59599;47.608;12.190;2023-03-25T06:22:39;7.90;99.90
13320;DHT22;59599;47.608;12.190;2023-03-25T06:25:08;7.80;99.90
13320;DHT22;59599;47.608;12.190;2023-03-25T06:30:06;7.70;99.90
13320;DHT22;59599;47.608;12.190;2023-03-25T06:32:32;7.60;99.90
13320;DHT22;59599;47.608;12.190;2023-03-25T06:34:57;7.60;99.90
13320;DHT22;59599;47.608;12.190;2023-03-25T06:37:23;7.60;99.90
13320;DHT22;59599;47.608;12.190;2023-03-25T06:39:50;7.70;99.90
13320;DHT22;59599;47.608;12.190;2023-03-25T06:52:04;8.00;99.90
13320;DHT22;59599;47.608;12.190;2023-03-25T06:54:30;8.00;99.90
13320;DHT22;59599;47.608;12.190;2023-03-25T07:06:39;8.60;99.90
13320;DHT22;59599;47.608;12.190;2023-03-25T07:11:32;8.70;99.90
13320;DHT22;59599;47.608;12.190;2023-03-25T07:16:24;8.70;99.90
13320;DHT22;59599;47.608;12.190;2023-03-25T07:21:17;8.70;99.90
13320;DHT22;59599;47.608;12.190;2023-03-25T07:26:08;9.10;99.90
13320;DHT22;59599;47.608;12.190;2023-03-25T07:28:34;9.10;99.90
13320;DHT22;59599;47.608;12.190;2023-03-25T07:30:59;9.20;99.90
13320;DHT22;59599;47.608;12.190;2023-03-25T07:35:51;9.50;99.90
13320;DHT22;59599;47.608;12.190;2023-03-25T07:38:17;9.50;99.90
13320;DHT22;59599;47.608;12.190;2023-03-25T08:00:11;10.00;99.90
13320;DHT22;59599;47.608;12.190;2023-03-25T08:05:04;10.10;99.90
13320;DHT22;59599;47.608;12.190;2023-03-25T08:07:30;10.30;99.90
13320;DHT22;59599;47.608;12.190;2023-03-25T08:09:56;10.30;99.90
13320;DHT22;59599;47.608;12.190;2023-03-25T08:12:21;10.10;99.90
13320;DHT22;59599;47.608;12.190;2023-03-25T08:19:39;10.00;99.90
13320;DHT22;59599;47.608;12.190;2023-03-25T08:22:04;10.00;99.90
13320;DHT22;59599;47.608;12.190;2023-03-25T08:26:57;10.20;99.90
13320;DHT22;59599;47.608;12.190;2023-03-25T08:29:25;10.30;99.90
13320;DHT22;59599;47.608;12.190;2023-03-25T08:34:19;10.50;99.90
13320;DHT22;59599;47.608;12.190;2023-03-25T08:36:45;10.70;99.90
13320;DHT22;59599;47.608;12.190;2023-03-25T08:39:11;10.80;99.90
13320;DHT22;59599;47.608;12.190;2023-03-25T08:41:37;11.00;99.90
13320;DHT22;59599;47.608;12.190;2023-03-25T08:44:04;11.20;99.90
13320;DHT22;59599;47.608;12.190;2023-03-25T08:46:30;11.40;99.90
13320;DHT22;59599;47.608;12.190;2023-03-25T08:58:39;12.40;99.90
13320;DHT22;59599;47.608;12.190;2023-03-25T09:01:05;12.50;99.90
13320;DHT22;59599;47.608;12.190;2023-03-25T09:03:32;12.90;99.90
13320;DHT22;59599;47.608;12.190;2023-03-25T09:06:00;13.20;99.90
13320;DHT22;59599;47.608;12.190;2023-03-25T09:08:27;13.40;99.90
13320;DHT22;59599;47.608;12.190;2023-03-25T09:10:54;13.30;99.90
13320;DHT22;59599;47.608;12.190;2023-03-25T09:15:46;13.50;99.90
13320;DHT22;59599;47.608;12.190;2023-03-25T09:18:12;13.70;99.90
13320;DHT22;59599;47.608;12.190;2023-03-25T09:20:37;13.70;99.90
13320;DHT22;59599;47.608;12.190;2023-03-25T09:32:46;14.10;99.90
13320;DHT22;59599;47.608;12.190;2023-03-25T09:35:12;14.20;99.90
13320;DHT22;59599;47.608;12.190;2023-03-25T09:37:38;14.50;99.90
13320;DHT22;59599;47.608;12.190;2023-03-25T09:40:04;14.70;99.90
13320;DHT22;59599;47.608;12.190;2023-03-25T09:42:54;14.90;99.90
13320;DHT22;59599;47.608;12.190;2023-03-25T09:45:35;15.00;99.90
13320;DHT22;59599;47.608;12.190;2023-03-25T09:50:38;14.90;99.90
13320;DHT22;59599;47.608;12.190;2023-03-25T09:54:24;14.90;99.90
13320;DHT22;59599;47.608;12.190;2023-03-25T09:56:24;14.90;99.90
13320;DHT22;59599;47.608;12.190;2023-03-25T09:59:06;15.00;99.90
13320;DHT22;59599;47.608;12.190;2023-03-25T10:07:26;15.30;99.90
13320;DHT22;59599;47.608;12.190;2023-03-25T10:15:38;15.10;99.90
13320;DHT22;59599;47.608;12.190;2023-03-25T10:20:53;15.30;99.90
13320;DHT22;59599;47.608;12.190;2023-03-25T10:23:42;15.40;99.90
13320;DHT22;59599;47.608;12.190;2023-03-25T10:26:16;15.50;99.90
13320;DHT22;59599;47.608;12.190;2023-03-25T10:28:51;15.20;99.90
13320;DHT22;59599;47.608;12.190;2023-03-25T10:31:21;15.00;99.90
13320;DHT22;59599;47.608;12.190;2023-03-25T10:33:52;14.60;99.90
13320;DHT22;59599;47.608;12.190;2023-03-25T10:36:18;14.40;99.90
13320;DHT22;59599;47.608;12.190;2023-03-25T10:38:52;14.20;99.90
13320;DHT22;59599;47.608;12.190;2023-03-25T10:41:28;14.20;99.90
13320;DHT22;59599;47.608;12.190;2023-03-25T10:46:38;13.70;99.90
13320;DHT22;59599;47.608;12.190;2023-03-25T10:49:17;13.60;99.90
13320;DHT22;59599;47.608;12.190;2023-03-25T10:51:44;13.60;99.90
13320;DHT22;59599;47.608;12.190;2023-03-25T10:54:12;13.60;99.90
13320;DHT22;59599;47.608;12.190;2023-03-25T10:56:43;13.70;99.90
13320;DHT22;59599;47.608;12.190;2023-03-25T10:59:34;13.80;99.90
13320;DHT22;59599;47.608;12.190;2023-03-25T11:02:19;13.80;99.90
13320;DHT22;59599;47.608;12.190;2023-03-25T11:04:47;13.80;99.90
13320;DHT22;59599;47.608;12.190;2023-03-25T11:07:24;13.90;99.90
13320;DHT22;59599;47.608;12.190;2023-03-25T11:12:18;13.70;99.90
13320;DHT22;59599;47.608;12.190;2023-03-25T11:14:54;13.60;99.90
13320;DHT22;59599;47.608;12.190;2023-03-25T11:17:20;13.70;99.90
13320;DHT22;59599;47.608;12.190;2023-03-25T11:19:56;13.80;99.90
13320;DHT22;59599;47.608;12.190;2023-03-25T11:22:29;13.80;99.90
13320;DHT22;59599;47.608;12.190;2023-03-25T11:25:11;13.90;99.90
13320;DHT22;59599;47.608;12.190;2023-03-25T11:27:58;13.80;99.90
13320;DHT22;59599;47.608;12.190;2023-03-25T11:33:02;13.70;99.90
13320;DHT22;59599;47.608;12.190;2023-03-25T11:35:30;13.70;99.90
13320;DHT22;59599;47.608;12.190;2023-03-25T11:37:58;13.70;99.90
13320;DHT22;59599;47.608;12.190;2023-03-25T11:40:26;13.90;99.90
13320;DHT22;59599;47.608;12.190;2023-03-25T11:45:21;13.80;99.90
13320;DHT22;59599;47.608;12.190;2023-03-25T11:47:48;13.70;99.90
13320;DHT22;59599;47.608;12.190;2023-03-25T11:50:23;13.90;99.90
13320;DHT22;59599;47.608;12.190;2023-03-25T11:52:53;13.90;99.90
13320;DHT22;59599;47.608;12.190;2023-03-25T11:55:28;13.80;99.90
13320;DHT22;59599;47.608;12.190;2023-03-25T11:57:55;13.90;99.90
13320;DHT22;59599;47.608;12.190;2023-03-25T12:05:14;14.20;99.90
13320;DHT22;59599;47.608;12.190;2023-03-25T12:07:44;14.20;99.90
13320;DHT22;59599;47.608;12.190;2023-03-25T12:25:23;15.00;99.90
13320;DHT22;59599;47.608;12.190;2023-03-25T12:31:25;15.20;99.90
13320;DHT22;59599;47.608;12.190;2023-03-25T12:34:27;15.40;99.90
13320;DHT22;59599;47.608;12.190;2023-03-25T12:43:06;15.30;99.90
13320;DHT22;59599;47.608;12.190;2023-03-25T12:49:36;15.30;99.90
13320;DHT22;59599;47.608;12.190;2023-03-25T12:52:06;15.10;99.90
13320;DHT22;59599;47.608;12.190;2023-03-25T13:05:59;13.30;99.90
13320;DHT22;59599;47.608;12.190;2023-03-25T13:08:37;13.00;99.90
13320;DHT22;59599;47.608;12.190;2023-03-25T13:11:11;12.40;99.90
13320;DHT22;59599;47.608;12.190;2023-03-25T13:13:39;12.20;99.90
13320;DHT22;59599;47.608;12.190;2023-03-25T13:16:11;12.50;99.90
13320;DHT22;59599;47.608;12.190;2023-03-25T13:18:46;12.60;99.90
13320;DHT22;59599;47.608;12.190;2023-03-25T13:21:24;12.60;99.90
13320;DHT22;59599;47.608;12.190;2023-03-25T13:24:04;12.80;99.90
13320;DHT22;59599;47.608;12.190;2023-03-25T13:26:31;13.10;99.90
13320;DHT22;59599;47.608;12.190;2023-03-25T13:31:39;13.50;99.90
13320;DHT22;59599;47.608;12.190;2023-03-25T13:34:25;13.60;99.90
13320;DHT22;59599;47.608;12.190;2023-03-25T13:37:24;13.80;99.90
13320;DHT22;59599;47.608;12.190;2023-03-25T13:42:23;13.80;99.90
13320;DHT22;59599;47.608;12.190;2023-03-25T13:44:51;13.80;99.90
13320;DHT22;59599;47.608;12.190;2023-03-25T13:47:24;13.60;99.90
13320;DHT22;59599;47.608;12.190;2023-03-25T13:49:56;13.40;99.90
13320;DHT22;59599;47.608;12.190;2023-03-25T13:52:25;13.10;99.90
13320;DHT22;59599;47.608;12.190;2023-03-25T13:55:14;12.90;99.90
13320;DHT22;59599;47.608;12.190;2023-03-25T13:58:38;12.70;99.90
13320;DHT22;59599;47.608;12.190;2023-03-25T14:01:20;12.50;99.90
13320;DHT22;59599;47.608;12.190;2023-03-25T14:04:09;12.30;99.90
13320;DHT22;59599;47.608;12.190;2023-03-25T14:09:44;12.30;99.90
13320;DHT22;59599;47.608;12.190;2023-03-25T14:15:02;12.50;99.90
13320;DHT22;59599;47.608;12.190;2023-03-25T14:17:30;12.60;99.90
13320;DHT22;59599;47.608;12.190;2023-03-25T14:19:57;12.60;99.90
13320;DHT22;59599;47.608;12.190;2023-03-25T14:22:30;12.50;99.90
13320;DHT22;59599;47.608;12.190;2023-03-25T14:24:57;12.50;99.90
13320;DHT22;59599;47.608;12.190;2023-03-25T14:27:27;12.60;99.90
13320;DHT22;59599;47.608;12.190;2023-03-25T14:29:59;13.10;99.90
13320;DHT22;59599;47.608;12.190;2023-03-25T14:32:34;13.50;99.90
13320;DHT22;59599;47.608;12.190;2023-03-25T14:43:35;16.40;99.90
13320;DHT22;59599;47.608;12.190;2023-03-25T14:48:52;17.20;99.90
13320;DHT22;59599;47.608;12.190;2023-03-25T14:54:19;18.00;99.90
13320;DHT22;59599;47.608;12.190;2023-03-25T14:57:06;18.20;99.90
13320;DHT22;59599;47.608;12.190;2023-03-25T14:59:39;18.80;99.90
13320;DHT22;59599;47.608;12.190;2023-03-25T15:02:20;19.00;99.90
13320;DHT22;59599;47.608;12.190;2023-03-25T15:05:16;19.20;99.90
13320;DHT22;59599;47.608;12.190;2023-03-25T15:07:57;19.90;99.90
13320;DHT22;59599;47.608;12.190;2023-03-25T15:10:33;20.50;99.90
13320;DHT22;59599;47.608;12.190;2023-03-25T15:18:11;21.60;97.40
13320;DHT22;59599;47.608;12.190;2023-03-25T15:20:37;21.90;96.40
13320;DHT22;59599;47.608;12.190;2023-03-25T15:25:52;22.30;92.30
13320;DHT22;59599;47.608;12.190;2023-03-25T15:28:41;22.60;92.80
13320;DHT22;59599;47.608;12.190;2023-03-25T15:31:34;23.00;92.30
13320;DHT22;59599;47.608;12.190;2023-03-25T15:34:33;23.50;92.10
13320;DHT22;59599;47.608;12.190;2023-03-25T15:48:30;25.10;86.20
13320;DHT22;59599;47.608;12.190;2023-03-25T15:51:08;25.80;81.80
13320;DHT22;59599;47.608;12.190;2023-03-25T15:54:02;26.00;79.70
13320;DHT22;59599;47.608;12.190;2023-03-25T15:56:43;26.60;75.70
13320;DHT22;59599;47.608;12.190;2023-03-25T16:01:50;27.10;74.20
13320;DHT22;59599;47.608;12.190;2023-03-25T16:04:20;28.20;70.30
13320;DHT22;59599;47.608;12.190;2023-03-25T16:06:50;29.00;67.90
13320;DHT22;59599;47.608;12.190;2023-03-25T16:09:20;30.10;64.20
13320;DHT22;59599;47.608;12.190;2023-03-25T16:11:46;31.00;61.50
13320;DHT22;59599;47.608;12.190;2023-03-25T16:14:16;31.10;56.80
13320;DHT22;59599;47.608;12.190;2023-03-25T16:17:03;31.30;55.30
13320;DHT22;59599;47.608;12.190;2023-03-25T16:22:01;29.60;56.60
13320;DHT22;59599;47.608;12.190;2023-03-25T16:24:29;28.10;57.90
13320;DHT22;59599;47.608;12.190;2023-03-25T16:27:12;27.00;59.10
13320;DHT22;59599;47.608;12.190;2023-03-25T16:29:47;27.00;59.50
13320;DHT22;59599;47.608;12.190;2023-03-25T16:32:18;27.30;58.90
13320;DHT22;59599;47.608;12.190;2023-03-25T16:34:45;28.00;57.30
13320;DHT22;59599;47.608;12.190;2023-03-25T16:37:12;28.90;55.60
13320;DHT22;59599;47.608;12.190;2023-03-25T16:42:14;27.10;56.60
13320;DHT22;59599;47.608;12.190;2023-03-25T16:44:47;25.20;59.40
13320;DHT22;59599;47.608;12.190;2023-03-25T16:47:14;24.00;61.70
13320;DHT22;59599;47.608;12.190;2023-03-25T16:49:41;22.80;63.70
13320;DHT22;59599;47.608;12.190;2023-03-25T16:52:12;21.30;66.50
13320;DHT22;59599;47.608;12.190;2023-03-25T16:57:37;18.80;77.30
13320;DHT22;59599;47.608;12.190;2023-03-25T17:00:23;17.90;80.10
13320;DHT22;59599;47.608;12.190;2023-03-25T17:02:50;17.40;83.00
13320;DHT22;59599;47.608;12.190;2023-03-25T17:05:26;16.60;85.30
13320;DHT22;59599;47.608;12.190;2023-03-25T17:08:01;16.00;87.80
13320;DHT22;59599;47.608;12.190;2023-03-25T17:10:46;15.70;89.80
13320;DHT22;59599;47.608;12.190;2023-03-25T17:13:22;15.60;91.60
13320;DHT22;59599;47.608;12.190;2023-03-25T17:15:50;15.10;92.60
13320;DHT22;59599;47.608;12.190;2023-03-25T17:18:16;14.80;93.80
13320;DHT22;59599;47.608;12.190;2023-03-25T17:20:45;14.50;94.80
13320;DHT22;59599;47.608;12.190;2023-03-25T17:23:20;14.50;95.90
13320;DHT22;59599;47.608;12.190;2023-03-25T17:31:17;13.80;98.30
13320;DHT22;59599;47.608;12.190;2023-03-25T17:33:49;13.50;99.50
13320;DHT22;59599;47.608;12.190;2023-03-25T17:36:16;13.30;99.90
13320;DHT22;59599;47.608;12.190;2023-03-25T17:38:46;13.20;99.90
13320;DHT22;59599;47.608;12.190;2023-03-25T17:41:16;12.90;99.90
13320;DHT22;59599;47.608;12.190;2023-03-25T17:43:52;12.60;99.90
13320;DHT22;59599;47.608;12.190;2023-03-25T17:46:26;12.40;99.90
13320;DHT22;59599;47.608;12.190;2023-03-25T17:48:53;12.40;99.90
13320;DHT22;59599;47.608;12.190;2023-03-25T17:51:23;12.30;99.90
13320;DHT22;59599;47.608;12.190;2023-03-25T17:56:19;12.20;99.90
13320;DHT22;59599;47.608;12.190;2023-03-25T18:01:12;12.00;99.90
13320;DHT22;59599;47.608;12.190;2023-03-25T18:10:57;11.50;99.90
13320;DHT22;59599;47.608;12.190;2023-03-25T18:13:23;11.50;99.90
13320;DHT22;59599;47.608;12.190;2023-03-25T18:18:19;11.30;99.90
13320;DHT22;59599;47.608;12.190;2023-03-25T18:23:12;11.20;99.90
13320;DHT22;59599;47.608;12.190;2023-03-25T18:28:04;11.20;99.90
13320;DHT22;59599;47.608;12.190;2023-03-25T18:30:40;11.00;99.90
13320;DHT22;59599;47.608;12.190;2023-03-25T18:33:07;10.90;99.90
13320;DHT22;59599;47.608;12.190;2023-03-25T18:40:29;10.80;99.90
13320;DHT22;59599;47.608;12.190;2023-03-25T18:45:22;10.70;99.90
13320;DHT22;59599;47.608;12.190;2023-03-25T18:47:49;10.60;99.90
13320;DHT22;59599;47.608;12.190;2023-03-25T18:50:30;10.60;99.90
13320;DHT22;59599;47.608;12.190;2023-03-25T18:52:57;10.70;99.90
13320;DHT22;59599;47.608;12.190;2023-03-25T18:55:23;10.60;99.90
13320;DHT22;59599;47.608;12.190;2023-03-25T19:00:22;10.40;99.90
13320;DHT22;59599;47.608;12.190;2023-03-25T19:02:52;10.50;99.90
13320;DHT22;59599;47.608;12.190;2023-03-25T19:05:19;10.60;99.90
13320;DHT22;59599;47.608;12.190;2023-03-25T19:10:23;10.30;99.90
13320;DHT22;59599;47.608;12.190;2023-03-25T19:12:49;10.20;99.90
13320;DHT22;59599;47.608;12.190;2023-03-25T19:15:18;10.10;99.90
13320;DHT22;59599;47.608;12.190;2023-03-25T19:17:45;10.00;99.90
13320;DHT22;59599;47.608;12.190;2023-03-25T19:20:20;10.00;99.90
13320;DHT22;59599;47.608;12.190;2023-03-25T19:25:14;9.80;99.90
13320;DHT22;59599;47.608;12.190;2023-03-25T19:27:40;9.70;99.90
13320;DHT22;59599;47.608;12.190;2023-03-25T19:30:08;9.60;99.90
13320;DHT22;59599;47.608;12.190;2023-03-25T19:40:03;9.70;99.90
13320;DHT22;59599;47.608;12.190;2023-03-25T19:47:38;9.90;99.90
13320;DHT22;59599;47.608;12.190;2023-03-25T19:50:09;9.90;99.90
13320;DHT22;59599;47.608;12.190;2023-03-25T19:52:36;9.90;99.90
13320;DHT22;59599;47.608;12.190;2023-03-25T19:55:03;9.90;99.90
13320;DHT22;59599;47.608;12.190;2023-03-25T20:02:22;9.70;99.90
13320;DHT22;59599;47.608;12.190;2023-03-25T20:07:14;9.60;99.90
13320;DHT22;59599;47.608;12.190;2023-03-25T20:09:42;9.60;99.90
13320;DHT22;59599;47.608;12.190;2023-03-25T20:34:02;9.10;99.90
13320;DHT22;59599;47.608;12.190;2023-03-25T20:36:29;9.00;99.90
13320;DHT22;59599;47.608;12.190;2023-03-25T20:38:54;9.10;99.90
13320;DHT22;59599;47.608;12.190;2023-03-25T20:48:39;9.00;99.90
13320;DHT22;59599;47.608;12.190;2023-03-25T20:51:07;8.90;99.90
13320;DHT22;59599;47.608;12.190;2023-03-25T20:53:35;8.90;99.90
13320;DHT22;59599;47.608;12.190;2023-03-25T20:58:28;8.60;99.90
13320;DHT22;59599;47.608;12.190;2023-03-25T21:00:54;8.40;99.90
13320;DHT22;59599;47.608;12.190;2023-03-25T21:05:58;8.50;99.90
13320;DHT22;59599;47.608;12.190;2023-03-25T21:08:25;8.50;99.90
13320;DHT22;59599;47.608;12.190;2023-03-25T21:10:55;8.60;99.90
13320;DHT22;59599;47.608;12.190;2023-03-25T21:15:52;8.70;99.90
13320;DHT22;59599;47.608;12.190;2023-03-25T21:20:52;8.30;99.90
13320;DHT22;59599;47.608;12.190;2023-03-25T21:25:45;8.10;99.90
13320;DHT22;59599;47.608;12.190;2023-03-25T21:33:08;8.00;99.90
13320;DHT22;59599;47.608;12.190;2023-03-25T21:38:00;8.10;99.90
13320;DHT22;59599;47.608;12.190;2023-03-25T21:45:18;8.20;99.90
13320;DHT22;59599;47.608;12.190;2023-03-25T21:47:45;8.00;99.90
13320;DHT22;59599;47.608;12.190;2023-03-25T21:50:13;8.00;99.90
13320;DHT22;59599;47.608;12.190;2023-03-25T21:52:40;8.10;99.90
13320;DHT22;59599;47.608;12.190;2023-03-25T22:00:04;7.90;99.90
13320;DHT22;59599;47.608;12.190;2023-03-25T22:02:32;7.90;99.90
13320;DHT22;59599;47.608;12.190;2023-03-25T22:04:57;7.90;99.90
13320;DHT22;59599;47.608;12.190;2023-03-25T22:31:45;7.50;99.90
13320;DHT22;59599;47.608;12.190;2023-03-25T22:34:13;7.40;99.90
13320;DHT22;59599;47.608;12.190;2023-03-25T22:36:42;7.40;99.90
13320;DHT22;59599;47.608;12.190;2023-03-25T22:39:10;7.40;99.90
13320;DHT22;59599;47.608;12.190;2023-03-25T22:41:36;7.60;99.90
13320;DHT22;59599;47.608;12.190;2023-03-25T22:44:02;7.50;99.90
13320;DHT22;59599;47.608;12.190;2023-03-25T22:53:46;7.40;99.90
13320;DHT22;59599;47.608;12.190;2023-03-25T22:56:12;7.50;99.90
13320;DHT22;59599;47.608;12.190;2023-03-25T22:58:38;7.60;99.90
